Knossos Palace — SYQO — position and weather

sailwx.info

Track history (hours):
 
Tides and Currents Weather Stations Pressure Air Temp Water Temp Dewpoint Dewpoint Depression Visibility Wind Speed Wind Dir Waves Ship Positions

Knossos Palace

Last reported at 2015-Apr-19 19:33 UTC. Time now 2015-Apr-19 23:01 UTC.
Position N 37°38' E 023°44'.

Length 214 m; beam 26.4 m; draft 7.3 m.

Type: Ship. MMSI: 237641000.

Date/timePositionNaut miles runAvg speedWind from/ knotsBaromVisibWave heightAir tempDewpointWater temp
2015-Apr-19 19:33N 37°38' E 023°44'1919.1
2015-Apr-19 18:33N 37°56' E 023°37'1 1.1
2015-Apr-19 17:33N 37°57' E 023°38'0 0.0
2015-Apr-19 16:33N 37°57' E 023°38'1 1.2
2015-Apr-19 15:33N 37°56' E 023°37'1818.5
2015-Apr-19 14:33N 37°39' E 023°46'7624.0
2015-Apr-19 11:23N 36°29' E 024°21'2024.2
2015-Apr-19 10:33N 36°11' E 024°34'2423.7
2015-Apr-19 09:33N 35°51' E 024°49'2424.0
2015-Apr-19 08:33N 35°30' E 025°04'7 1.2
2015-Apr-19 03:13N 35°24' E 025°08'1217.6
2015-Apr-19 02:33N 35°34' E 025°00'1818.7
2015-Apr-19 01:34N 35°50' E 024°49'1918.8
2015-Apr-19 00:33N 36°07' E 024°37'1918.6
2015-Apr-18 23:33N 36°22' E 024°25'8218.9
2015-Apr-18 19:14N 37°37' E 023°44'1318.8
2015-Apr-18 18:33N 37°49' E 023°38'8 7.7
2015-Apr-18 17:33N 37°57' E 023°38'0 0.0
2015-Apr-18 16:28N 37°57' E 023°38'0 0.0
2015-Apr-18 15:31N 37°57' E 023°38'0 0.0
2015-Apr-18 14:31N 37°57' E 023°38'0 0.0
2015-Apr-18 13:31N 37°57' E 023°38'0 0.0
2015-Apr-18 12:31N 37°57' E 023°38'0 0.0
2015-Apr-18 11:31N 37°57' E 023°38'0 0.0
2015-Apr-18 10:33N 37°57' E 023°38'0 0.0
2015-Apr-18 09:33N 37°57' E 023°38'0 0.0
2015-Apr-18 08:33N 37°57' E 023°38'0 0.0
2015-Apr-18 07:33N 37°57' E 023°38'0 0.0
2015-Apr-18 06:33N 37°57' E 023°38'0 0.0
2015-Apr-18 05:33N 37°57' E 023°38'0 0.0
2015-Apr-18 04:34N 37°57' E 023°38'1 1.5
2015-Apr-18 03:33N 37°56' E 023°37'2019.7
2015-Apr-18 02:33N 37°38' E 023°47'2920.3
2015-Apr-18 01:06N 37°10' E 023°60'3220.2
2015-Apr-17 23:31N 36°40' E 024°14'1919.9
2015-Apr-17 22:33N 36°23' E 024°26'2019.6
2015-Apr-17 21:33N 36°06' E 024°38'2119.3
2015-Apr-17 20:26N 35°48' E 024°51'1820.0
2015-Apr-17 19:33N 35°32' E 025°02'140 5.8
2015-Apr-16 19:26N 37°37' E 023°44'1719.6
2015-Apr-16 18:33N 37°53' E 023°37'4 3.7
2015-Apr-16 17:33N 37°57' E 023°38'0 0.0
2015-Apr-16 16:32N 37°57' E 023°38'0 0.0
2015-Apr-16 15:29N 37°57' E 023°38'0 0.0
2015-Apr-16 14:32N 37°57' E 023°38'0 0.0
2015-Apr-16 13:26N 37°57' E 023°38'0 0.0
2015-Apr-16 12:17N 37°57' E 023°38'0 0.0
2015-Apr-16 11:29N 37°57' E 023°38'0 0.0
2015-Apr-16 10:23N 37°57' E 023°38'0 0.0
2015-Apr-16 09:26N 37°57' E 023°38'0 0.0
2015-Apr-16 08:32N 37°57' E 023°38'0 0.0
2015-Apr-16 07:29N 37°57' E 023°38'0 0.0
2015-Apr-16 06:17N 37°57' E 023°38'0 0.0
2015-Apr-16 05:29N 37°57' E 023°38'0 0.0
2015-Apr-16 04:29N 37°57' E 023°38'0 0.0
2015-Apr-16 03:33N 37°57' E 023°38'1514.8
2015-Apr-16 02:33N 37°43' E 023°44'10920.4
2015-Apr-15 21:12N 36°03' E 024°40'1320.2
2015-Apr-15 20:33N 35°52' E 024°48'35 3.9
2015-Apr-15 11:29N 35°21' E 025°09'0 0.0
2015-Apr-15 07:32N 35°21' E 025°09'0 0.0
2015-Apr-15 03:33N 35°21' E 025°09'1615.4
2015-Apr-15 02:31N 35°35' E 024°60'1818.8
2015-Apr-15 01:33N 35°51' E 024°48'1918.8
2015-Apr-15 00:33N 36°07' E 024°37'7918.5
2015-Apr-14 20:18N 37°18' E 023°54'1419.5
2015-Apr-14 19:33N 37°31' E 023°47'2019.7
2015-Apr-14 18:33N 37°50' E 023°38'7 7.1
2015-Apr-14 17:33N 37°57' E 023°38'0 0.0
2015-Apr-14 16:27N 37°57' E 023°38'0 0.0
2015-Apr-14 15:33N 37°57' E 023°38'1312.9
2015-Apr-14 14:34N 37°45' E 023°43'2525.3
2015-Apr-14 13:33N 37°21' E 023°54'5625.1
2015-Apr-14 11:18N 36°29' E 024°21'1925.1
2015-Apr-14 10:33N 36°12' E 024°33'2524.4
2015-Apr-14 09:33N 35°51' E 024°48'2524.6
2015-Apr-14 08:33N 35°30' E 025°04'1010.0
2015-Apr-14 07:33N 35°21' E 025°09'0 0.0
2015-Apr-14 06:33N 35°21' E 025°09'0 0.0
2015-Apr-14 05:33N 35°21' E 025°09'0 0.0
2015-Apr-14 04:33N 35°21' E 025°09'0 0.0
2015-Apr-14 03:33N 35°21' E 025°09'1414.2
2015-Apr-14 02:33N 35°34' E 025°01'1919.5
2015-Apr-14 01:33N 35°50' E 024°49'2019.4
2015-Apr-14 00:32N 36°07' E 024°37'6219.3
2015-Apr-13 21:20N 37°02' E 024°02'1519.3
2015-Apr-13 20:33N 37°16' E 023°54'1919.3
2015-Apr-13 19:33N 37°34' E 023°46'1919.2
2015-Apr-13 18:33N 37°52' E 023°37'4 4.4
2015-Apr-13 17:33N 37°57' E 023°38'0 0.0
2015-Apr-13 16:33N 37°57' E 023°38'0 0.0
2015-Apr-13 15:33N 37°57' E 023°38'0 0.0
2015-Apr-13 14:33N 37°57' E 023°38'0 0.0
2015-Apr-13 13:33N 37°57' E 023°38'0 0.0
2015-Apr-13 12:33N 37°57' E 023°38'0 0.0
2015-Apr-13 11:33N 37°57' E 023°38'0 0.0
2015-Apr-13 10:33N 37°57' E 023°38'0 0.0
2015-Apr-13 09:33N 37°57' E 023°38'0 0.0
2015-Apr-13 08:33N 37°57' E 023°38'0 0.0
2015-Apr-13 07:33N 37°57' E 023°38'0 0.0
2015-Apr-13 06:33N 37°57' E 023°38'0 0.0
2015-Apr-13 05:33N 37°57' E 023°38'0 0.0
2015-Apr-13 04:33N 37°57' E 023°38'1 0.9
2015-Apr-13 03:33N 37°56' E 023°37'1818.2
2015-Apr-13 02:33N 37°39' E 023°46'1919.5
2015-Apr-13 01:33N 37°20' E 023°52'2519.7
2015-Apr-13 00:18N 36°58' E 024°06'5620.1
2015-Apr-12 21:33N 36°08' E 024°36'1919.0
2015-Apr-12 20:32N 35°52' E 024°48'1918.9
2015-Apr-12 19:32N 35°35' E 024°60'16 4.8
2015-Apr-12 16:04N 35°21' E 025°09'0 0.0
2015-Apr-12 10:29N 35°21' E 025°09'14 0.4
2015-Apr-11 02:26N 35°33' E 025°01'1719.0
2015-Apr-11 01:33N 35°48' E 024°51'1918.9
2015-Apr-11 00:33N 36°04' E 024°39'10119.2
2015-Apr-10 19:16N 37°35' E 023°45'1520.4
2015-Apr-10 18:33N 37°49' E 023°38'8 7.8
2015-Apr-10 17:33N 37°57' E 023°38'0 0.0
2015-Apr-10 16:26N 37°57' E 023°38'0 0.0
2015-Apr-10 15:32N 37°57' E 023°38'0 0.0
2015-Apr-10 14:32N 37°57' E 023°38'0 0.0
2015-Apr-10 13:32N 37°57' E 023°38'0 0.0
2015-Apr-10 12:32N 37°57' E 023°38'0 0.0
2015-Apr-10 11:32N 37°57' E 023°38'0 0.0
2015-Apr-10 10:32N 37°57' E 023°38'0 0.0
2015-Apr-10 09:32N 37°57' E 023°38'0 0.0
2015-Apr-10 08:32N 37°57' E 023°38'0 0.0
2015-Apr-10 07:32N 37°57' E 023°38'0 0.0
2015-Apr-10 06:32N 37°57' E 023°38'0 0.0
2015-Apr-10 05:32N 37°57' E 023°38'0 0.0
2015-Apr-10 04:32N 37°57' E 023°38'0 0.0
2015-Apr-10 03:32N 37°57' E 023°38'0 0.0
2015-Apr-10 02:32N 37°57' E 023°38'0 0.0
2015-Apr-10 01:29N 37°57' E 023°38'0 0.0
2015-Apr-10 00:32N 37°57' E 023°38'0 0.0
2015-Apr-09 23:29N 37°57' E 023°38'0 0.0
2015-Apr-09 22:32N 37°57' E 023°38'0 0.0
2015-Apr-09 21:32N 37°57' E 023°38'0 0.0
2015-Apr-09 20:32N 37°57' E 023°38'  
Track history (hours):
 
Tides and Currents Weather Stations Pressure Air Temp Water Temp Dewpoint Dewpoint Depression Visibility Wind Speed Wind Dir Waves Ship Positions

Knossos Palace

Last reported at 2015-Apr-19 19:33 UTC. Time now 2015-Apr-19 23:01 UTC.
Position N 37°38' E 023°44'.

Length 214 m; beam 26.4 m; draft 7.3 m.

Type: Ship. MMSI: 237641000.

Date/timePositionNaut miles runAvg speedWind from/ knotsBaromVisibWave heightAir tempDewpointWater temp
2015-Apr-19 19:33N 37°38' E 023°44'1919.1
2015-Apr-19 18:33N 37°56' E 023°37'1 1.1
2015-Apr-19 17:33N 37°57' E 023°38'0 0.0
2015-Apr-19 16:33N 37°57' E 023°38'1 1.2
2015-Apr-19 15:33N 37°56' E 023°37'1818.5
2015-Apr-19 14:33N 37°39' E 023°46'7624.0
2015-Apr-19 11:23N 36°29' E 024°21'2024.2
2015-Apr-19 10:33N 36°11' E 024°34'2423.7
2015-Apr-19 09:33N 35°51' E 024°49'2424.0
2015-Apr-19 08:33N 35°30' E 025°04'7 1.2
2015-Apr-19 03:13N 35°24' E 025°08'1217.6
2015-Apr-19 02:33N 35°34' E 025°00'1818.7
2015-Apr-19 01:34N 35°50' E 024°49'1918.8
2015-Apr-19 00:33N 36°07' E 024°37'1918.6
2015-Apr-18 23:33N 36°22' E 024°25'8218.9
2015-Apr-18 19:14N 37°37' E 023°44'1318.8
2015-Apr-18 18:33N 37°49' E 023°38'8 7.7
2015-Apr-18 17:33N 37°57' E 023°38'0 0.0
2015-Apr-18 16:28N 37°57' E 023°38'0 0.0
2015-Apr-18 15:31N 37°57' E 023°38'0 0.0
2015-Apr-18 14:31N 37°57' E 023°38'0 0.0
2015-Apr-18 13:31N 37°57' E 023°38'0 0.0
2015-Apr-18 12:31N 37°57' E 023°38'0 0.0
2015-Apr-18 11:31N 37°57' E 023°38'0 0.0
2015-Apr-18 10:33N 37°57' E 023°38'0 0.0
2015-Apr-18 09:33N 37°57' E 023°38'0 0.0
2015-Apr-18 08:33N 37°57' E 023°38'0 0.0
2015-Apr-18 07:33N 37°57' E 023°38'0 0.0
2015-Apr-18 06:33N 37°57' E 023°38'0 0.0
2015-Apr-18 05:33N 37°57' E 023°38'0 0.0
2015-Apr-18 04:34N 37°57' E 023°38'1 1.5
2015-Apr-18 03:33N 37°56' E 023°37'2019.7
2015-Apr-18 02:33N 37°38' E 023°47'2920.3
2015-Apr-18 01:06N 37°10' E 023°60'3220.2
2015-Apr-17 23:31N 36°40' E 024°14'1919.9
2015-Apr-17 22:33N 36°23' E 024°26'2019.6
2015-Apr-17 21:33N 36°06' E 024°38'2119.3
2015-Apr-17 20:26N 35°48' E 024°51'1820.0
2015-Apr-17 19:33N 35°32' E 025°02'140 5.8
2015-Apr-16 19:26N 37°37' E 023°44'1719.6
2015-Apr-16 18:33N 37°53' E 023°37'4 3.7
2015-Apr-16 17:33N 37°57' E 023°38'0 0.0
2015-Apr-16 16:32N 37°57' E 023°38'0 0.0
2015-Apr-16 15:29N 37°57' E 023°38'0 0.0
2015-Apr-16 14:32N 37°57' E 023°38'0 0.0
2015-Apr-16 13:26N 37°57' E 023°38'0 0.0
2015-Apr-16 12:17N 37°57' E 023°38'0 0.0
2015-Apr-16 11:29N 37°57' E 023°38'0 0.0
2015-Apr-16 10:23N 37°57' E 023°38'0 0.0
2015-Apr-16 09:26N 37°57' E 023°38'0 0.0
2015-Apr-16 08:32N 37°57' E 023°38'0 0.0
2015-Apr-16 07:29N 37°57' E 023°38'0 0.0
2015-Apr-16 06:17N 37°57' E 023°38'0 0.0
2015-Apr-16 05:29N 37°57' E 023°38'0 0.0
2015-Apr-16 04:29N 37°57' E 023°38'0 0.0
2015-Apr-16 03:33N 37°57' E 023°38'1514.8
2015-Apr-16 02:33N 37°43' E 023°44'10920.4
2015-Apr-15 21:12N 36°03' E 024°40'1320.2
2015-Apr-15 20:33N 35°52' E 024°48'35 3.9
2015-Apr-15 11:29N 35°21' E 025°09'0 0.0
2015-Apr-15 07:32N 35°21' E 025°09'0 0.0
2015-Apr-15 03:33N 35°21' E 025°09'1615.4
2015-Apr-15 02:31N 35°35' E 024°60'1818.8
2015-Apr-15 01:33N 35°51' E 024°48'1918.8
2015-Apr-15 00:33N 36°07' E 024°37'7918.5
2015-Apr-14 20:18N 37°18' E 023°54'1419.5
2015-Apr-14 19:33N 37°31' E 023°47'2019.7
2015-Apr-14 18:33N 37°50' E 023°38'7 7.1
2015-Apr-14 17:33N 37°57' E 023°38'0 0.0
2015-Apr-14 16:27N 37°57' E 023°38'0 0.0
2015-Apr-14 15:33N 37°57' E 023°38'1312.9
2015-Apr-14 14:34N 37°45' E 023°43'2525.3
2015-Apr-14 13:33N 37°21' E 023°54'5625.1
2015-Apr-14 11:18N 36°29' E 024°21'1925.1
2015-Apr-14 10:33N 36°12' E 024°33'2524.4
2015-Apr-14 09:33N 35°51' E 024°48'2524.6
2015-Apr-14 08:33N 35°30' E 025°04'1010.0
2015-Apr-14 07:33N 35°21' E 025°09'0 0.0
2015-Apr-14 06:33N 35°21' E 025°09'0 0.0
2015-Apr-14 05:33N 35°21' E 025°09'0 0.0
2015-Apr-14 04:33N 35°21' E 025°09'0 0.0
2015-Apr-14 03:33N 35°21' E 025°09'1414.2
2015-Apr-14 02:33N 35°34' E 025°01'1919.5
2015-Apr-14 01:33N 35°50' E 024°49'2019.4
2015-Apr-14 00:32N 36°07' E 024°37'6219.3
2015-Apr-13 21:20N 37°02' E 024°02'1519.3
2015-Apr-13 20:33N 37°16' E 023°54'1919.3
2015-Apr-13 19:33N 37°34' E 023°46'1919.2
2015-Apr-13 18:33N 37°52' E 023°37'4 4.4
2015-Apr-13 17:33N 37°57' E 023°38'0 0.0
2015-Apr-13 16:33N 37°57' E 023°38'0 0.0
2015-Apr-13 15:33N 37°57' E 023°38'0 0.0
2015-Apr-13 14:33N 37°57' E 023°38'0 0.0
2015-Apr-13 13:33N 37°57' E 023°38'0 0.0
2015-Apr-13 12:33N 37°57' E 023°38'0 0.0
2015-Apr-13 11:33N 37°57' E 023°38'0 0.0
2015-Apr-13 10:33N 37°57' E 023°38'0 0.0
2015-Apr-13 09:33N 37°57' E 023°38'0 0.0
2015-Apr-13 08:33N 37°57' E 023°38'0 0.0
2015-Apr-13 07:33N 37°57' E 023°38'0 0.0
2015-Apr-13 06:33N 37°57' E 023°38'0 0.0
2015-Apr-13 05:33N 37°57' E 023°38'0 0.0
2015-Apr-13 04:33N 37°57' E 023°38'1 0.9
2015-Apr-13 03:33N 37°56' E 023°37'1818.2
2015-Apr-13 02:33N 37°39' E 023°46'1919.5
2015-Apr-13 01:33N 37°20' E 023°52'2519.7
2015-Apr-13 00:18N 36°58' E 024°06'5620.1
2015-Apr-12 21:33N 36°08' E 024°36'1919.0
2015-Apr-12 20:32N 35°52' E 024°48'1918.9
2015-Apr-12 19:32N 35°35' E 024°60'16 4.8
2015-Apr-12 16:04N 35°21' E 025°09'0 0.0
2015-Apr-12 10:29N 35°21' E 025°09'14 0.4
2015-Apr-11 02:26N 35°33' E 025°01'1719.0
2015-Apr-11 01:33N 35°48' E 024°51'1918.9
2015-Apr-11 00:33N 36°04' E 024°39'10119.2
2015-Apr-10 19:16N 37°35' E 023°45'1520.4
2015-Apr-10 18:33N 37°49' E 023°38'8 7.8
2015-Apr-10 17:33N 37°57' E 023°38'0 0.0
2015-Apr-10 16:26N 37°57' E 023°38'0 0.0
2015-Apr-10 15:32N 37°57' E 023°38'0 0.0
2015-Apr-10 14:32N 37°57' E 023°38'0 0.0
2015-Apr-10 13:32N 37°57' E 023°38'0 0.0
2015-Apr-10 12:32N 37°57' E 023°38'0 0.0
2015-Apr-10 11:32N 37°57' E 023°38'0 0.0
2015-Apr-10 10:32N 37°57' E 023°38'0 0.0
2015-Apr-10 09:32N 37°57' E 023°38'0 0.0
2015-Apr-10 08:32N 37°57' E 023°38'0 0.0
2015-Apr-10 07:32N 37°57' E 023°38'0 0.0
2015-Apr-10 06:32N 37°57' E 023°38'0 0.0
2015-Apr-10 05:32N 37°57' E 023°38'0 0.0
2015-Apr-10 04:32N 37°57' E 023°38'0 0.0
2015-Apr-10 03:32N 37°57' E 023°38'0 0.0
2015-Apr-10 02:32N 37°57' E 023°38'0 0.0
2015-Apr-10 01:29N 37°57' E 023°38'0 0.0
2015-Apr-10 00:32N 37°57' E 023°38'0 0.0
2015-Apr-09 23:29N 37°57' E 023°38'0 0.0
2015-Apr-09 22:32N 37°57' E 023°38'0 0.0
2015-Apr-09 21:32N 37°57' E 023°38'0 0.0
2015-Apr-09 20:32N 37°57' E 023°38'  

Dump ship's entire track history